Hlavní strana
METAR-TAF:

METAR-TAF

Letiště :

Liberia, Kostarika

zeměpisná šířka: 10-37N, zeměpisná délka: 085-26W, výška: 80 m

Aktuální stav počasí

Zpráva byla vytvořena před 24 minutami, v 14:00 UTC
Jižní vítr 3 kt, proměnlivý mezi východojihovýchodním a jihozápadním
Teplota 28°C
Vlhkost vzduchu 74%
Tlak 1012 hPa
Viditelnost 10 km a více
Skoro jasno ve výšce 4500 ft
Oblačno až skoro zataženo ve výšce 24000 ft

METAR: MRLB 201400Z 18003KT 110V220 9999 FEW045 BKN240 28/23 A2989 NOSIG

Čas: 08:24 (14:24 UTC)

Předpověď počasí

Zpráva byla vytvořena před 3 hodinami a 24 minutami, v 11:00 UTC
Předpověď platná od 20 v 12 UTC do 21 v 12 UTC
Východní vítr 13 kt
Viditelnost 10 km a více
Polojasno ve výšce 4000 ft
Polojasno ve výšce 11000 ft
Dočasný
od 20 v 12 UTC do 20 v 14 UTC
Západní vítr 3 kt
Dočasný
od 20 v 15 UTC do 20 v 20 UTC
déšť

TAF: MRLB 201100Z 2012/2112 10013KT 9999 SCT040 SCT110 TX332/2019Z TN22/2111Z TEMPO 2012/2014 26003KT TEMPO 2015/2020 RA

Stav a předpovědi počasí z více než 4 000 letišť (zprávy METAR a TAF).

Červené a žluté tečky na mapě představují dostupné meteorologické stanice.

Když kurzor umístíte na tečku, zobrazí se název stanice.

Pak kliknutím zobrazíte stav a předpověď počasí.

Chcete-li změnit mapu, kliknutím na zelené tlačítko se znaménkem +mapu přiblížíte, kliknutím na zelené tlačítko se znaménkem – mapu oddálíte a kliknutím na zelené šipky přejdete na sousední mapy.


METAR-TAF: